Terminal Aerodrome Forecast
Issued by NWS

Home | Current Version | Previous Version | Text Only | Print | Product List | Glossary On
Versions: 1 2 3 4 5 6 7 8 9 10 11 12 13 14 15
578
FTUS46 KSEW 281137
TAFOLM
TAF
KOLM 281137Z 2812/2912 18006KT P6SM OVC015
     FM281700 20006KT P6SM BKN025
     FM281900 20006KT P6SM SCT035=

USA.gov is the U.S. government's official web portal to all federal, state and local government web resources and services.